createdAt,value
2022-09-07T00:01:53.640Z,2.17
2022-09-07T00:04:55.514Z,2.08
2022-09-07T00:07:58.589Z,2.05
2022-09-07T00:11:04.087Z,1.95
2022-09-07T00:14:07.639Z,1.85
2022-09-07T00:17:09.352Z,2.00
2022-09-07T00:20:12.554Z,1.88
2022-09-07T00:23:14.201Z,1.80
2022-09-07T00:26:21.674Z,1.83
2022-09-07T00:29:23.631Z,2.00
2022-09-07T00:32:25.359Z,1.55
2022-09-07T00:35:27.328Z,1.80
2022-09-07T00:38:29.076Z,1.65
2022-09-07T00:41:30.956Z,1.70
2022-09-07T00:45:00.417Z,1.60
2022-09-07T00:48:16.955Z,2.00
2022-09-07T00:51:27.727Z,1.60
2022-09-07T00:54:37.138Z,1.67
2022-09-07T00:57:43.039Z,1.83
2022-09-07T01:03:51.700Z,1.80
2022-09-07T01:06:55.210Z,1.83
2022-09-07T01:09:57.684Z,2.28
2022-09-07T01:13:00.450Z,2.40
2022-09-07T01:16:14.111Z,2.90
2022-09-07T01:19:57.092Z,2.85
2022-09-07T01:23:07.609Z,2.72
2022-09-07T01:26:48.521Z,2.72
2022-09-07T01:30:06.479Z,2.63
2022-09-07T01:33:38.850Z,2.40
2022-09-07T01:36:44.792Z,2.55
2022-09-07T01:42:54.657Z,2.35
2022-09-07T01:46:00.441Z,2.30
2022-09-07T01:49:12.549Z,2.28
2022-09-07T01:52:20.833Z,2.35
2022-09-07T01:55:29.860Z,2.10
2022-09-07T01:58:38.270Z,2.35
2022-09-07T02:02:04.175Z,2.08
2022-09-07T02:05:18.584Z,2.10
2022-09-07T02:08:56.758Z,1.80
2022-09-07T02:12:03.059Z,2.00
2022-09-07T02:15:15.613Z,1.90
2022-09-07T02:18:19.273Z,1.98
2022-09-07T02:21:36.653Z,2.00
2022-09-07T02:24:43.772Z,1.98
2022-09-07T02:27:49.825Z,2.08
2022-09-07T02:33:53.330Z,1.70
2022-09-07T02:36:57.125Z,1.50
2022-09-07T02:40:00.487Z,1.70
2022-09-07T02:43:08.152Z,1.67
2022-09-07T02:46:25.979Z,1.50
2022-09-07T02:49:33.710Z,1.83
2022-09-07T02:52:47.437Z,1.60
2022-09-07T02:55:58.733Z,1.80
2022-09-07T02:59:08.403Z,1.70
2022-09-07T03:02:33.301Z,1.60
2022-09-07T03:05:38.072Z,1.80
2022-09-07T03:08:50.438Z,1.70
2022-09-07T03:11:52.796Z,1.63
2022-09-07T03:14:54.511Z,1.70
2022-09-07T03:17:56.436Z,1.80
2022-09-07T03:20:58.184Z,1.55
2022-09-07T03:23:59.856Z,1.70
2022-09-07T03:27:01.589Z,1.98
2022-09-07T03:30:05.106Z,2.00
2022-09-07T03:33:07.207Z,2.03
2022-09-07T03:36:09.101Z,1.95
2022-09-07T03:39:12.636Z,1.80
2022-09-07T03:42:14.451Z,1.95
2022-09-07T03:45:16.701Z,1.88
2022-09-07T03:48:18.382Z,2.22
2022-09-07T03:51:20.094Z,2.10
2022-09-07T03:54:22.899Z,2.08
2022-09-07T03:57:24.548Z,1.90
2022-09-07T04:00:26.298Z,2.10
2022-09-07T04:03:27.905Z,2.20
2022-09-07T04:06:30.595Z,2.03
2022-09-07T04:09:32.490Z,1.73
2022-09-07T04:12:34.188Z,1.83
2022-09-07T04:15:36.087Z,1.85
2022-09-07T04:18:37.850Z,2.10
2022-09-07T04:21:40.035Z,1.80
2022-09-07T04:24:41.736Z,2.10
2022-09-07T04:27:43.588Z,2.03
2022-09-07T04:30:46.919Z,2.28
2022-09-07T04:33:49.940Z,2.17
2022-09-07T04:36:51.621Z,1.90
2022-09-07T04:39:53.579Z,2.10
2022-09-07T04:42:55.354Z,2.10
2022-09-07T04:45:57.098Z,2.42
2022-09-07T04:49:01.280Z,2.03
2022-09-07T04:52:03.269Z,2.00
2022-09-07T04:55:05.450Z,2.25
2022-09-07T04:58:07.125Z,2.15
2022-09-07T05:01:09.023Z,2.10
2022-09-07T05:04:10.907Z,2.22
2022-09-07T05:07:12.519Z,2.13
2022-09-07T05:10:14.225Z,2.17
2022-09-07T05:13:16.017Z,2.20
2022-09-07T05:16:23.736Z,1.98
2022-09-07T05:19:25.388Z,2.10
2022-09-07T05:22:27.161Z,2.17
2022-09-07T05:25:29.259Z,2.05
2022-09-07T05:28:31.297Z,2.05
2022-09-07T05:31:33.756Z,2.00
2022-09-07T05:34:35.511Z,2.05
2022-09-07T05:37:37.197Z,2.10
2022-09-07T05:40:40.837Z,2.20
2022-09-07T05:47:05.248Z,2.00
2022-09-07T05:50:08.952Z,2.42
2022-09-07T05:53:10.586Z,2.00
2022-09-07T05:56:12.913Z,2.40
2022-09-07T05:59:14.711Z,2.60
2022-09-07T06:02:16.600Z,2.28
2022-09-07T06:05:18.377Z,2.08
2022-09-07T06:08:20.075Z,2.10
2022-09-07T06:11:23.788Z,2.40
2022-09-07T06:14:25.583Z,2.20
2022-09-07T06:17:29.606Z,2.20
2022-09-07T06:20:31.307Z,2.35
2022-09-07T06:23:34.464Z,2.17
2022-09-07T06:26:36.186Z,2.20
2022-09-07T06:29:37.969Z,2.10
2022-09-07T06:35:54.239Z,2.17
2022-09-07T06:38:59.080Z,2.30
2022-09-07T06:42:00.909Z,2.15
2022-09-07T06:45:05.933Z,2.33
2022-09-07T06:48:07.550Z,2.65
2022-09-07T06:51:15.809Z,2.67
2022-09-07T06:57:39.886Z,2.45
2022-09-07T07:00:41.639Z,2.42
2022-09-07T07:03:44.676Z,2.33
2022-09-07T07:06:46.448Z,2.30
2022-09-07T07:09:50.116Z,2.00
2022-09-07T07:12:56.710Z,2.20
2022-09-07T07:16:06.833Z,2.10
2022-09-07T07:19:09.269Z,2.00
2022-09-07T07:25:36.472Z,2.10
2022-09-07T07:32:01.031Z,2.35
2022-09-07T07:35:02.746Z,2.20
2022-09-07T07:48:14.835Z,2.20
2022-09-07T07:51:16.569Z,2.22
2022-09-07T07:54:18.292Z,2.40
2022-09-07T07:57:20.017Z,2.20
2022-09-07T08:00:37.393Z,2.50
2022-09-07T08:03:46.821Z,2.10
2022-09-07T08:06:49.011Z,2.17
2022-09-07T08:09:51.171Z,2.33
2022-09-07T08:12:53.384Z,2.50
2022-09-07T08:15:59.411Z,2.40
2022-09-07T08:19:01.689Z,2.30
2022-09-07T08:22:03.961Z,2.17
2022-09-07T08:25:07.264Z,2.05
2022-09-07T08:28:08.986Z,2.35
2022-09-07T08:31:13.819Z,2.20
2022-09-07T08:34:15.530Z,2.30
2022-09-07T08:37:17.257Z,2.05
2022-09-07T08:40:19.597Z,2.15
2022-09-07T08:43:27.363Z,2.20
2022-09-07T08:46:37.579Z,2.38
2022-09-07T08:49:55.196Z,2.30
2022-09-07T08:53:29.465Z,2.22
2022-09-07T08:56:36.091Z,1.98
2022-09-07T08:59:43.054Z,2.28
2022-09-07T09:02:45.746Z,2.30
2022-09-07T09:06:10.465Z,2.30
2022-09-07T09:09:27.606Z,2.10
2022-09-07T09:12:55.227Z,2.10
2022-09-07T09:16:05.410Z,2.15
2022-09-07T09:19:19.282Z,2.08
2022-09-07T09:22:24.009Z,2.10
2022-09-07T09:25:36.052Z,2.10
2022-09-07T09:28:39.027Z,2.10
2022-09-07T09:31:41.175Z,2.28
2022-09-07T09:35:04.715Z,1.92
2022-09-07T09:38:29.257Z,2.22
2022-09-07T09:41:38.629Z,2.10
2022-09-07T09:44:42.037Z,1.73
2022-09-07T09:47:50.226Z,2.08
2022-09-07T09:54:52.111Z,2.25
2022-09-07T10:01:29.551Z,1.70
2022-09-07T10:04:35.096Z,2.20
2022-09-07T10:07:36.746Z,2.20
2022-09-07T10:10:38.463Z,2.10
2022-09-07T10:13:55.893Z,2.28
2022-09-07T10:16:58.930Z,1.83
2022-09-07T10:20:02.070Z,1.90
2022-09-07T10:23:05.984Z,2.00
2022-09-07T10:26:26.029Z,1.80
2022-09-07T10:29:30.695Z,1.92
2022-09-07T10:32:49.121Z,1.85
2022-09-07T10:36:02.217Z,1.90
2022-09-07T10:39:08.435Z,1.90
2022-09-07T10:42:10.011Z,1.88
2022-09-07T10:45:24.392Z,2.10
2022-09-07T10:48:37.942Z,2.10
2022-09-07T10:52:03.853Z,1.77
2022-09-07T10:55:14.718Z,1.77
2022-09-07T11:02:24.857Z,1.75
2022-09-07T11:05:58.716Z,1.70
2022-09-07T11:09:20.806Z,1.80
2022-09-07T11:12:30.438Z,1.92
2022-09-07T11:15:40.007Z,1.95
2022-09-07T11:22:38.920Z,1.90
2022-09-07T11:26:07.527Z,1.67
2022-09-07T11:29:32.637Z,1.80
2022-09-07T11:32:44.879Z,1.60
2022-09-07T11:36:01.056Z,1.77
2022-09-07T11:39:19.920Z,1.85
2022-09-07T11:42:48.035Z,1.98
2022-09-07T11:45:56.777Z,1.60
2022-09-07T11:48:59.433Z,1.98
2022-09-07T11:52:08.981Z,1.80
2022-09-07T11:55:20.657Z,1.85
2022-09-07T11:58:49.181Z,1.92
2022-09-07T12:01:57.207Z,1.70
2022-09-07T12:05:36.431Z,1.90
2022-09-07T12:09:05.456Z,1.67
2022-09-07T12:12:19.325Z,1.80
2022-09-07T12:15:45.187Z,1.90
2022-09-07T12:19:01.464Z,1.70
2022-09-07T12:22:03.751Z,1.70
2022-09-07T12:25:10.453Z,1.90
2022-09-07T12:28:35.285Z,1.70
2022-09-07T12:32:07.368Z,1.70
2022-09-07T12:35:29.011Z,1.90
2022-09-07T12:38:30.599Z,1.60
2022-09-07T12:41:44.641Z,1.60
2022-09-07T12:44:48.338Z,1.70
2022-09-07T12:47:59.019Z,1.70
2022-09-07T12:51:59.646Z,1.77
2022-09-07T12:55:27.078Z,1.73
2022-09-07T12:59:11.929Z,1.80
2022-09-07T13:02:55.336Z,1.65
2022-09-07T13:06:07.762Z,1.85
2022-09-07T13:09:32.243Z,1.77
2022-09-07T13:12:58.839Z,1.85
2022-09-07T13:16:06.556Z,1.80
2022-09-07T13:19:14.548Z,1.98
2022-09-07T13:22:31.622Z,1.90
2022-09-07T13:25:46.162Z,1.70
2022-09-07T13:29:11.122Z,1.65
2022-09-07T13:33:08.040Z,1.60
2022-09-07T13:35:52.406Z,1.80
2022-09-07T13:38:55.493Z,1.70
2022-09-07T13:42:00.455Z,1.60
2022-09-07T13:45:05.497Z,1.52
2022-09-07T13:48:19.107Z,1.70
2022-09-07T13:51:29.589Z,1.60
2022-09-07T13:55:02.373Z,1.95
2022-09-07T13:58:48.631Z,1.90
2022-09-07T14:01:50.932Z,1.80
2022-09-07T14:04:54.978Z,2.00
2022-09-07T14:07:56.687Z,1.77
2022-09-07T14:10:58.329Z,1.95
2022-09-07T14:14:33.030Z,2.15
2022-09-07T14:17:34.845Z,1.75
2022-09-07T14:20:51.751Z,1.80
2022-09-07T14:23:53.549Z,1.90
2022-09-07T14:26:55.337Z,1.90
2022-09-07T14:30:22.189Z,1.90
2022-09-07T14:33:23.886Z,1.90
2022-09-07T14:36:46.857Z,2.13
2022-09-07T14:39:50.770Z,1.55
2022-09-07T14:42:55.317Z,1.60
2022-09-07T14:46:30.860Z,1.65
2022-09-07T14:49:32.991Z,1.50
2022-09-07T14:52:43.313Z,1.70
2022-09-07T14:56:02.308Z,1.77
2022-09-07T14:59:44.195Z,1.70
2022-09-07T15:02:45.880Z,1.70
2022-09-07T15:05:48.728Z,1.60
2022-09-07T15:08:50.491Z,1.50
2022-09-07T15:12:17.834Z,1.50
2022-09-07T15:15:21.867Z,1.50
2022-09-07T15:18:51.770Z,1.40
2022-09-07T15:21:54.269Z,1.55
2022-09-07T15:24:55.945Z,1.50
2022-09-07T15:27:57.930Z,1.40
2022-09-07T15:34:21.347Z,1.80
2022-09-07T15:41:20.740Z,1.80
2022-09-07T15:44:15.110Z,1.48
2022-09-07T15:50:38.439Z,1.60
2022-09-07T16:00:23.601Z,1.70
2022-09-07T16:03:25.368Z,1.77
2022-09-07T16:06:27.525Z,1.88
2022-09-07T16:09:29.105Z,1.60
2022-09-07T16:15:54.392Z,1.80
2022-09-07T16:18:56.478Z,1.98
2022-09-07T16:21:58.769Z,1.90
2022-09-07T16:25:00.426Z,1.63
2022-09-07T16:28:03.414Z,1.60
2022-09-07T16:31:07.768Z,1.50
2022-09-07T16:34:09.470Z,1.60
2022-09-07T16:37:11.271Z,1.50
2022-09-07T16:40:13.008Z,1.60
2022-09-07T16:43:14.671Z,1.65
2022-09-07T16:46:18.897Z,1.67
2022-09-07T16:49:20.761Z,1.70
2022-09-07T16:52:23.356Z,1.70
2022-09-07T16:55:25.051Z,1.60
2022-09-07T16:58:47.324Z,1.60
2022-09-07T17:01:49.334Z,1.50
2022-09-07T17:04:51.950Z,1.65
2022-09-07T17:07:53.731Z,1.70
2022-09-07T17:11:09.185Z,1.50
2022-09-07T17:14:11.006Z,1.80
2022-09-07T17:17:12.714Z,1.80
2022-09-07T17:20:14.703Z,1.90
2022-09-07T17:23:17.445Z,1.52
2022-09-07T17:26:20.183Z,1.92
2022-09-07T17:29:21.965Z,1.70
2022-09-07T17:32:26.310Z,1.70
2022-09-07T17:35:32.180Z,1.70
2022-09-07T17:41:58.607Z,1.85
2022-09-07T17:45:00.458Z,1.88
2022-09-07T17:48:02.246Z,1.65
2022-09-07T17:51:07.525Z,1.73
2022-09-07T17:54:12.541Z,1.90
2022-09-07T17:57:14.175Z,1.80
2022-09-07T18:00:16.063Z,1.85
2022-09-07T18:03:18.124Z,1.73
2022-09-07T18:06:21.179Z,1.88
2022-09-07T18:09:23.223Z,1.70
2022-09-07T18:12:25.146Z,1.90
2022-09-07T18:15:27.271Z,1.90
2022-09-07T18:18:29.866Z,1.90
2022-09-07T18:21:34.807Z,1.80
2022-09-07T18:24:48.072Z,1.80
2022-09-07T18:29:03.166Z,1.77
2022-09-07T18:31:12.267Z,1.80
2022-09-07T18:34:14.027Z,1.65
2022-09-07T18:37:15.819Z,1.90
2022-09-07T18:40:21.504Z,2.00
2022-09-07T18:43:23.541Z,1.70
2022-09-07T18:46:25.618Z,1.75
2022-09-07T18:49:27.305Z,1.75
2022-09-07T18:55:51.046Z,1.80
2022-09-07T18:58:57.000Z,1.85
2022-09-07T19:08:32.835Z,1.75
2022-09-07T19:11:34.431Z,1.90
2022-09-07T19:14:36.075Z,1.70
2022-09-07T19:17:38.562Z,2.00
2022-09-07T19:20:40.385Z,1.70
2022-09-07T19:23:42.498Z,1.80
2022-09-07T19:26:47.301Z,1.77
2022-09-07T19:29:49.470Z,1.80
2022-09-07T19:32:51.260Z,1.85
2022-09-07T19:35:52.869Z,1.77
2022-09-07T19:38:54.476Z,1.58
2022-09-07T19:41:56.623Z,1.80
2022-09-07T19:44:58.334Z,1.83
2022-09-07T19:47:59.921Z,1.70
2022-09-07T19:51:02.257Z,1.90
2022-09-07T19:54:06.454Z,1.80
2022-09-07T19:57:08.363Z,1.80
2022-09-07T20:00:10.724Z,1.75
2022-09-07T20:03:15.065Z,2.20
2022-09-07T20:06:18.660Z,1.83
2022-09-07T20:09:20.722Z,1.85
2022-09-07T20:12:22.390Z,2.22
2022-09-07T20:15:24.736Z,1.95
2022-09-07T20:18:27.671Z,1.90
2022-09-07T20:21:29.290Z,2.30
2022-09-07T20:24:31.339Z,2.00
2022-09-07T20:27:35.800Z,2.00
2022-09-07T20:30:43.109Z,1.83
2022-09-07T20:33:46.234Z,1.75
2022-09-07T20:36:51.841Z,2.00
2022-09-07T20:39:53.741Z,2.03
2022-09-07T20:42:55.425Z,1.77
2022-09-07T20:45:58.278Z,1.85
2022-09-07T20:49:01.100Z,2.03
2022-09-07T20:52:02.970Z,2.15
2022-09-07T20:55:05.100Z,2.25
2022-09-07T20:58:06.851Z,2.55
2022-09-07T21:01:09.489Z,2.30
2022-09-07T21:04:11.273Z,2.40
2022-09-07T21:07:12.912Z,2.50
2022-09-07T21:10:14.723Z,2.22
2022-09-07T21:13:16.440Z,2.55
2022-09-07T21:16:18.221Z,2.47
2022-09-07T21:19:19.986Z,2.60
2022-09-07T21:22:21.651Z,2.22
2022-09-07T21:25:23.663Z,2.80
2022-09-07T21:28:26.150Z,2.25
2022-09-07T21:31:29.401Z,2.60
2022-09-07T21:34:31.165Z,2.38
2022-09-07T21:37:32.807Z,2.45
2022-09-07T21:40:34.567Z,2.17
2022-09-07T21:43:36.586Z,2.08
2022-09-07T21:46:38.668Z,2.40
2022-09-07T21:49:40.466Z,2.40
2022-09-07T21:52:42.133Z,2.38
2022-09-07T21:55:43.873Z,2.38
2022-09-07T21:58:45.605Z,2.40
2022-09-07T22:01:47.391Z,2.38
2022-09-07T22:04:49.157Z,2.58
2022-09-07T22:07:50.787Z,2.67
2022-09-07T22:10:52.471Z,2.60
2022-09-07T22:14:00.310Z,2.40
2022-09-07T22:17:02.466Z,2.50
2022-09-07T22:20:04.428Z,2.25
2022-09-07T22:23:06.149Z,2.38
2022-09-07T22:26:08.667Z,2.30
2022-09-07T22:29:12.110Z,2.08
2022-09-07T22:32:13.744Z,2.80
2022-09-07T22:35:17.498Z,2.40
2022-09-07T22:38:19.394Z,2.28
2022-09-07T22:41:24.238Z,2.30
2022-09-07T22:44:26.911Z,2.15
2022-09-07T22:47:28.635Z,2.40
2022-09-07T22:50:31.925Z,2.30
2022-09-07T22:53:35.886Z,2.25
2022-09-07T22:56:39.089Z,2.20
2022-09-07T22:59:40.906Z,2.28
2022-09-07T23:02:42.589Z,2.30
2022-09-07T23:05:44.394Z,2.28
2022-09-07T23:08:46.019Z,2.50
2022-09-07T23:11:48.519Z,2.45
2022-09-07T23:14:50.535Z,2.17
2022-09-07T23:17:52.256Z,2.25
2022-09-07T23:21:00.411Z,2.17
2022-09-07T23:24:02.532Z,2.38
2022-09-07T23:27:04.293Z,2.30
2022-09-07T23:30:07.777Z,2.03
2022-09-07T23:33:09.443Z,2.30
2022-09-07T23:36:11.134Z,2.30
2022-09-07T23:39:12.945Z,2.20
2022-09-07T23:42:14.721Z,2.00
2022-09-07T23:45:16.422Z,2.42
2022-09-07T23:48:18.419Z,2.45
2022-09-07T23:51:23.878Z,2.45
2022-09-07T23:54:26.086Z,2.20
2022-09-07T23:57:27.912Z,2.40
